sensor_id;sensor_type;location;lat;lon;timestamp;P1;durP1;ratioP1;P2;durP2;ratioP2
51654;SDS011;37732;53.106;7.030;2022-12-29T00:02:10;6.43;;;4.68;;
51654;SDS011;37732;53.106;7.030;2022-12-29T00:04:36;6.55;;;5.00;;
51654;SDS011;37732;53.106;7.030;2022-12-29T00:07:01;5.88;;;4.63;;
51654;SDS011;37732;53.106;7.030;2022-12-29T00:09:29;5.78;;;4.47;;
51654;SDS011;37732;53.106;7.030;2022-12-29T00:11:55;5.68;;;4.20;;
51654;SDS011;37732;53.106;7.030;2022-12-29T00:14:21;5.85;;;4.72;;
51654;SDS011;37732;53.106;7.030;2022-12-29T00:17:06;6.95;;;4.72;;
51654;SDS011;37732;53.106;7.030;2022-12-29T00:19:31;6.60;;;5.07;;
51654;SDS011;37732;53.106;7.030;2022-12-29T00:22:15;5.82;;;4.78;;
51654;SDS011;37732;53.106;7.030;2022-12-29T00:25:00;5.93;;;4.57;;
51654;SDS011;37732;53.106;7.030;2022-12-29T00:27:44;7.20;;;5.43;;
51654;SDS011;37732;53.106;7.030;2022-12-29T00:30:29;6.97;;;5.63;;
51654;SDS011;37732;53.106;7.030;2022-12-29T00:33:15;6.55;;;5.43;;
51654;SDS011;37732;53.106;7.030;2022-12-29T00:36:05;7.80;;;6.10;;
51654;SDS011;37732;53.106;7.030;2022-12-29T00:38:55;6.28;;;5.32;;
51654;SDS011;37732;53.106;7.030;2022-12-29T00:41:43;6.85;;;5.70;;
51654;SDS011;37732;53.106;7.030;2022-12-29T00:44:27;8.52;;;6.85;;
51654;SDS011;37732;53.106;7.030;2022-12-29T00:46:53;6.18;;;5.57;;
51654;SDS011;37732;53.106;7.030;2022-12-29T00:49:18;6.88;;;5.60;;
51654;SDS011;37732;53.106;7.030;2022-12-29T00:51:57;7.18;;;5.70;;
51654;SDS011;37732;53.106;7.030;2022-12-29T00:54:23;6.60;;;5.20;;
51654;SDS011;37732;53.106;7.030;2022-12-29T00:56:50;6.05;;;5.40;;
51654;SDS011;37732;53.106;7.030;2022-12-29T00:59:17;6.85;;;5.22;;
51654;SDS011;37732;53.106;7.030;2022-12-29T01:01:43;6.28;;;4.90;;
51654;SDS011;37732;53.106;7.030;2022-12-29T01:04:10;6.28;;;4.90;;
51654;SDS011;37732;53.106;7.030;2022-12-29T01:06:39;6.68;;;5.30;;
51654;SDS011;37732;53.106;7.030;2022-12-29T01:09:05;6.63;;;4.63;;
51654;SDS011;37732;53.106;7.030;2022-12-29T01:11:51;6.10;;;4.90;;
51654;SDS011;37732;53.106;7.030;2022-12-29T01:14:17;5.90;;;4.70;;
51654;SDS011;37732;53.106;7.030;2022-12-29T01:16:43;6.05;;;4.50;;
51654;SDS011;37732;53.106;7.030;2022-12-29T01:19:09;6.32;;;4.78;;
51654;SDS011;37732;53.106;7.030;2022-12-29T01:21:35;6.95;;;4.28;;
51654;SDS011;37732;53.106;7.030;2022-12-29T01:24:01;6.38;;;5.07;;
51654;SDS011;37732;53.106;7.030;2022-12-29T01:26:26;7.75;;;5.28;;
51654;SDS011;37732;53.106;7.030;2022-12-29T01:28:52;7.60;;;4.97;;
51654;SDS011;37732;53.106;7.030;2022-12-29T01:31:18;7.97;;;4.68;;
51654;SDS011;37732;53.106;7.030;2022-12-29T01:33:44;6.95;;;4.35;;
51654;SDS011;37732;53.106;7.030;2022-12-29T01:36:11;5.70;;;4.38;;
51654;SDS011;37732;53.106;7.030;2022-12-29T01:38:39;6.63;;;4.57;;
51654;SDS011;37732;53.106;7.030;2022-12-29T01:41:05;6.50;;;4.22;;
51654;SDS011;37732;53.106;7.030;2022-12-29T01:43:44;5.60;;;4.43;;
51654;SDS011;37732;53.106;7.030;2022-12-29T01:49:07;5.50;;;3.90;;
51654;SDS011;37732;53.106;7.030;2022-12-29T01:51:39;5.05;;;4.00;;
51654;SDS011;37732;53.106;7.030;2022-12-29T01:54:11;7.18;;;4.15;;
51654;SDS011;37732;53.106;7.030;2022-12-29T01:56:42;5.43;;;4.03;;
51654;SDS011;37732;53.106;7.030;2022-12-29T01:59:10;5.55;;;3.78;;
51654;SDS011;37732;53.106;7.030;2022-12-29T02:05:27;5.30;;;3.85;;
51654;SDS011;37732;53.106;7.030;2022-12-29T02:08:01;6.15;;;3.85;;
51654;SDS011;37732;53.106;7.030;2022-12-29T02:10:27;5.95;;;4.20;;
51654;SDS011;37732;53.106;7.030;2022-12-29T02:12:56;5.80;;;3.70;;
51654;SDS011;37732;53.106;7.030;2022-12-29T02:15:23;5.70;;;3.40;;
51654;SDS011;37732;53.106;7.030;2022-12-29T02:18:17;5.20;;;3.75;;
51654;SDS011;37732;53.106;7.030;2022-12-29T02:21:05;6.00;;;3.85;;
51654;SDS011;37732;53.106;7.030;2022-12-29T02:32:07;6.13;;;3.30;;
51654;SDS011;37732;53.106;7.030;2022-12-29T02:34:54;6.15;;;3.40;;
51654;SDS011;37732;53.106;7.030;2022-12-29T02:45:59;6.68;;;2.88;;
51654;SDS011;37732;53.106;7.030;2022-12-29T02:48:54;6.05;;;3.15;;
51654;SDS011;37732;53.106;7.030;2022-12-29T02:51:33;4.50;;;2.80;;
51654;SDS011;37732;53.106;7.030;2022-12-29T02:54:08;5.40;;;2.97;;
51654;SDS011;37732;53.106;7.030;2022-12-29T02:56:52;5.32;;;2.80;;
51654;SDS011;37732;53.106;7.030;2022-12-29T02:59:18;6.40;;;2.85;;
51654;SDS011;37732;53.106;7.030;2022-12-29T03:01:55;5.45;;;2.97;;
51654;SDS011;37732;53.106;7.030;2022-12-29T03:05:18;4.53;;;2.95;;
51654;SDS011;37732;53.106;7.030;2022-12-29T03:14:02;5.35;;;2.53;;
51654;SDS011;37732;53.106;7.030;2022-12-29T03:17:47;4.18;;;2.72;;
51654;SDS011;37732;53.106;7.030;2022-12-29T03:20:14;4.00;;;2.20;;
51654;SDS011;37732;53.106;7.030;2022-12-29T03:23:08;3.67;;;2.53;;
51654;SDS011;37732;53.106;7.030;2022-12-29T03:25:37;4.35;;;2.40;;
51654;SDS011;37732;53.106;7.030;2022-12-29T03:28:26;4.82;;;2.55;;
51654;SDS011;37732;53.106;7.030;2022-12-29T03:31:00;3.00;;;2.08;;
51654;SDS011;37732;53.106;7.030;2022-12-29T03:33:28;4.28;;;2.35;;
51654;SDS011;37732;53.106;7.030;2022-12-29T03:35:58;3.22;;;2.33;;
51654;SDS011;37732;53.106;7.030;2022-12-29T03:38:37;3.53;;;2.38;;
51654;SDS011;37732;53.106;7.030;2022-12-29T03:41:17;3.72;;;2.10;;
51654;SDS011;37732;53.106;7.030;2022-12-29T03:46:32;5.70;;;2.30;;
51654;SDS011;37732;53.106;7.030;2022-12-29T03:48:58;2.65;;;1.90;;
51654;SDS011;37732;53.106;7.030;2022-12-29T03:51:23;3.70;;;2.13;;
51654;SDS011;37732;53.106;7.030;2022-12-29T03:53:49;4.25;;;2.40;;
51654;SDS011;37732;53.106;7.030;2022-12-29T03:56:14;3.13;;;2.13;;
51654;SDS011;37732;53.106;7.030;2022-12-29T03:58:40;5.38;;;2.60;;
51654;SDS011;37732;53.106;7.030;2022-12-29T04:01:06;4.18;;;2.13;;
51654;SDS011;37732;53.106;7.030;2022-12-29T04:03:32;3.45;;;2.15;;
51654;SDS011;37732;53.106;7.030;2022-12-29T04:05:57;3.88;;;2.40;;
51654;SDS011;37732;53.106;7.030;2022-12-29T04:08:23;4.43;;;1.90;;
51654;SDS011;37732;53.106;7.030;2022-12-29T04:10:49;5.07;;;2.15;;
51654;SDS011;37732;53.106;7.030;2022-12-29T04:13:15;4.30;;;1.85;;
51654;SDS011;37732;53.106;7.030;2022-12-29T04:15:42;4.20;;;1.85;;
51654;SDS011;37732;53.106;7.030;2022-12-29T04:18:08;2.08;;;1.65;;
51654;SDS011;37732;53.106;7.030;2022-12-29T04:20:34;4.32;;;1.95;;
51654;SDS011;37732;53.106;7.030;2022-12-29T04:23:18;4.05;;;1.95;;
51654;SDS011;37732;53.106;7.030;2022-12-29T04:25:47;4.28;;;2.08;;
51654;SDS011;37732;53.106;7.030;2022-12-29T04:28:13;2.45;;;1.80;;
51654;SDS011;37732;53.106;7.030;2022-12-29T04:30:40;5.35;;;2.20;;
51654;SDS011;37732;53.106;7.030;2022-12-29T04:33:07;5.93;;;2.20;;
51654;SDS011;37732;53.106;7.030;2022-12-29T04:35:32;2.70;;;1.70;;
51654;SDS011;37732;53.106;7.030;2022-12-29T04:37:58;2.83;;;1.38;;
51654;SDS011;37732;53.106;7.030;2022-12-29T04:40:24;6.45;;;1.83;;
51654;SDS011;37732;53.106;7.030;2022-12-29T04:42:49;4.15;;;1.25;;
51654;SDS011;37732;53.106;7.030;2022-12-29T04:45:18;3.22;;;1.20;;
51654;SDS011;37732;53.106;7.030;2022-12-29T04:47:43;3.85;;;1.30;;
51654;SDS011;37732;53.106;7.030;2022-12-29T04:50:09;3.60;;;1.20;;
51654;SDS011;37732;53.106;7.030;2022-12-29T04:52:35;1.85;;;1.20;;
51654;SDS011;37732;53.106;7.030;2022-12-29T04:55:01;3.65;;;1.48;;
51654;SDS011;37732;53.106;7.030;2022-12-29T04:57:27;2.88;;;1.02;;
51654;SDS011;37732;53.106;7.030;2022-12-29T04:59:53;2.95;;;0.88;;
51654;SDS011;37732;53.106;7.030;2022-12-29T05:02:19;4.38;;;1.65;;
51654;SDS011;37732;53.106;7.030;2022-12-29T05:04:44;3.83;;;1.13;;
51654;SDS011;37732;53.106;7.030;2022-12-29T05:07:11;1.60;;;0.82;;
51654;SDS011;37732;53.106;7.030;2022-12-29T05:09:37;3.22;;;1.67;;
51654;SDS011;37732;53.106;7.030;2022-12-29T05:12:03;2.40;;;1.15;;
51654;SDS011;37732;53.106;7.030;2022-12-29T05:14:29;3.22;;;1.23;;
51654;SDS011;37732;53.106;7.030;2022-12-29T05:16:54;3.60;;;1.35;;
51654;SDS011;37732;53.106;7.030;2022-12-29T05:19:20;6.85;;;2.00;;
51654;SDS011;37732;53.106;7.030;2022-12-29T05:21:46;5.35;;;1.73;;
51654;SDS011;37732;53.106;7.030;2022-12-29T05:24:11;6.47;;;1.80;;
51654;SDS011;37732;53.106;7.030;2022-12-29T05:26:37;6.28;;;2.80;;
51654;SDS011;37732;53.106;7.030;2022-12-29T05:29:03;5.65;;;2.20;;
51654;SDS011;37732;53.106;7.030;2022-12-29T05:31:29;6.15;;;2.25;;
51654;SDS011;37732;53.106;7.030;2022-12-29T05:33:54;8.00;;;2.42;;
51654;SDS011;37732;53.106;7.030;2022-12-29T05:36:20;6.30;;;2.05;;
51654;SDS011;37732;53.106;7.030;2022-12-29T05:38:46;6.30;;;2.20;;
51654;SDS011;37732;53.106;7.030;2022-12-29T05:41:11;7.22;;;2.33;;
51654;SDS011;37732;53.106;7.030;2022-12-29T05:43:37;5.22;;;2.42;;
51654;SDS011;37732;53.106;7.030;2022-12-29T05:46:03;5.45;;;2.00;;
51654;SDS011;37732;53.106;7.030;2022-12-29T05:48:29;9.18;;;2.83;;
51654;SDS011;37732;53.106;7.030;2022-12-29T05:50:54;7.38;;;2.40;;
51654;SDS011;37732;53.106;7.030;2022-12-29T05:53:20;9.70;;;2.40;;
51654;SDS011;37732;53.106;7.030;2022-12-29T05:55:46;8.60;;;2.90;;
51654;SDS011;37732;53.106;7.030;2022-12-29T05:58:13;7.88;;;2.85;;
51654;SDS011;37732;53.106;7.030;2022-12-29T06:00:39;8.82;;;3.17;;
51654;SDS011;37732;53.106;7.030;2022-12-29T06:03:05;7.65;;;2.85;;
51654;SDS011;37732;53.106;7.030;2022-12-29T06:05:31;10.48;;;2.60;;
51654;SDS011;37732;53.106;7.030;2022-12-29T06:07:56;10.10;;;2.72;;
51654;SDS011;37732;53.106;7.030;2022-12-29T06:10:23;7.30;;;2.40;;
51654;SDS011;37732;53.106;7.030;2022-12-29T06:12:49;8.57;;;2.42;;
51654;SDS011;37732;53.106;7.030;2022-12-29T06:15:14;8.75;;;2.65;;
51654;SDS011;37732;53.106;7.030;2022-12-29T06:17:40;4.43;;;2.40;;
51654;SDS011;37732;53.106;7.030;2022-12-29T06:20:06;8.52;;;2.05;;
51654;SDS011;37732;53.106;7.030;2022-12-29T06:22:32;6.15;;;1.90;;
51654;SDS011;37732;53.106;7.030;2022-12-29T06:24:58;5.75;;;2.08;;
51654;SDS011;37732;53.106;7.030;2022-12-29T06:27:24;7.97;;;2.47;;
51654;SDS011;37732;53.106;7.030;2022-12-29T06:29:52;5.15;;;2.22;;
51654;SDS011;37732;53.106;7.030;2022-12-29T06:32:17;5.55;;;2.40;;
51654;SDS011;37732;53.106;7.030;2022-12-29T06:34:43;6.55;;;2.00;;
51654;SDS011;37732;53.106;7.030;2022-12-29T06:37:09;6.20;;;2.70;;
51654;SDS011;37732;53.106;7.030;2022-12-29T06:39:35;9.00;;;2.53;;
51654;SDS011;37732;53.106;7.030;2022-12-29T06:42:01;10.13;;;2.97;;
51654;SDS011;37732;53.106;7.030;2022-12-29T06:44:27;9.93;;;2.38;;
51654;SDS011;37732;53.106;7.030;2022-12-29T06:46:53;8.63;;;2.80;;
51654;SDS011;37732;53.106;7.030;2022-12-29T06:49:19;7.53;;;2.30;;
51654;SDS011;37732;53.106;7.030;2022-12-29T06:51:45;9.15;;;2.50;;
51654;SDS011;37732;53.106;7.030;2022-12-29T06:54:11;8.02;;;2.67;;
51654;SDS011;37732;53.106;7.030;2022-12-29T06:56:38;5.78;;;2.35;;
51654;SDS011;37732;53.106;7.030;2022-12-29T06:59:03;8.07;;;3.00;;
51654;SDS011;37732;53.106;7.030;2022-12-29T07:01:30;8.77;;;2.78;;
51654;SDS011;37732;53.106;7.030;2022-12-29T07:03:56;8.50;;;2.58;;
51654;SDS011;37732;53.106;7.030;2022-12-29T07:06:22;6.22;;;2.63;;
51654;SDS011;37732;53.106;7.030;2022-12-29T07:08:48;11.23;;;2.65;;
51654;SDS011;37732;53.106;7.030;2022-12-29T07:11:13;7.78;;;2.75;;
51654;SDS011;37732;53.106;7.030;2022-12-29T07:13:40;6.78;;;2.78;;
51654;SDS011;37732;53.106;7.030;2022-12-29T07:16:06;6.97;;;2.88;;
51654;SDS011;37732;53.106;7.030;2022-12-29T07:18:33;10.80;;;3.55;;
51654;SDS011;37732;53.106;7.030;2022-12-29T07:21:00;8.88;;;3.58;;
51654;SDS011;37732;53.106;7.030;2022-12-29T07:23:27;10.48;;;2.75;;
51654;SDS011;37732;53.106;7.030;2022-12-29T07:26:00;8.35;;;3.03;;
51654;SDS011;37732;53.106;7.030;2022-12-29T07:28:30;9.50;;;2.97;;
51654;SDS011;37732;53.106;7.030;2022-12-29T07:30:58;8.00;;;3.00;;
51654;SDS011;37732;53.106;7.030;2022-12-29T07:33:24;11.35;;;3.30;;
51654;SDS011;37732;53.106;7.030;2022-12-29T07:35:53;10.95;;;2.40;;
51654;SDS011;37732;53.106;7.030;2022-12-29T07:38:19;10.65;;;2.80;;
51654;SDS011;37732;53.106;7.030;2022-12-29T07:40:44;8.63;;;3.33;;
51654;SDS011;37732;53.106;7.030;2022-12-29T07:43:10;9.48;;;3.17;;
51654;SDS011;37732;53.106;7.030;2022-12-29T07:45:35;8.35;;;2.88;;
51654;SDS011;37732;53.106;7.030;2022-12-29T07:48:01;10.98;;;2.97;;
51654;SDS011;37732;53.106;7.030;2022-12-29T07:50:27;14.10;;;3.58;;
51654;SDS011;37732;53.106;7.030;2022-12-29T07:52:53;13.02;;;3.25;;
51654;SDS011;37732;53.106;7.030;2022-12-29T07:55:19;13.13;;;3.00;;
51654;SDS011;37732;53.106;7.030;2022-12-29T07:57:45;12.93;;;2.80;;
51654;SDS011;37732;53.106;7.030;2022-12-29T08:00:11;7.90;;;2.83;;
51654;SDS011;37732;53.106;7.030;2022-12-29T08:02:37;8.88;;;2.50;;
51654;SDS011;37732;53.106;7.030;2022-12-29T08:05:03;8.52;;;3.10;;
51654;SDS011;37732;53.106;7.030;2022-12-29T08:07:29;7.78;;;2.85;;
51654;SDS011;37732;53.106;7.030;2022-12-29T08:09:54;10.40;;;3.50;;
51654;SDS011;37732;53.106;7.030;2022-12-29T08:12:20;11.35;;;2.92;;
51654;SDS011;37732;53.106;7.030;2022-12-29T08:14:46;9.43;;;3.20;;
51654;SDS011;37732;53.106;7.030;2022-12-29T08:17:11;9.20;;;3.28;;
51654;SDS011;37732;53.106;7.030;2022-12-29T08:19:37;9.43;;;2.88;;
51654;SDS011;37732;53.106;7.030;2022-12-29T08:22:03;10.40;;;3.33;;
51654;SDS011;37732;53.106;7.030;2022-12-29T08:24:29;9.52;;;3.03;;
51654;SDS011;37732;53.106;7.030;2022-12-29T08:26:54;11.77;;;3.08;;
51654;SDS011;37732;53.106;7.030;2022-12-29T08:29:20;9.93;;;3.22;;
51654;SDS011;37732;53.106;7.030;2022-12-29T08:31:46;12.82;;;3.47;;
51654;SDS011;37732;53.106;7.030;2022-12-29T08:34:13;10.10;;;3.97;;
51654;SDS011;37732;53.106;7.030;2022-12-29T08:36:38;9.32;;;3.03;;
51654;SDS011;37732;53.106;7.030;2022-12-29T08:39:04;11.90;;;3.13;;
51654;SDS011;37732;53.106;7.030;2022-12-29T08:41:30;7.07;;;3.10;;
51654;SDS011;37732;53.106;7.030;2022-12-29T08:43:56;11.27;;;4.10;;
51654;SDS011;37732;53.106;7.030;2022-12-29T08:46:21;11.82;;;3.40;;
51654;SDS011;37732;53.106;7.030;2022-12-29T08:48:47;11.65;;;3.65;;
51654;SDS011;37732;53.106;7.030;2022-12-29T08:51:13;17.58;;;4.63;;
51654;SDS011;37732;53.106;7.030;2022-12-29T08:53:39;12.05;;;4.28;;
51654;SDS011;37732;53.106;7.030;2022-12-29T08:56:05;13.25;;;4.07;;
51654;SDS011;37732;53.106;7.030;2022-12-29T08:58:31;14.20;;;4.20;;
51654;SDS011;37732;53.106;7.030;2022-12-29T09:00:58;13.98;;;4.25;;
51654;SDS011;37732;53.106;7.030;2022-12-29T09:03:24;11.90;;;4.30;;
51654;SDS011;37732;53.106;7.030;2022-12-29T09:05:51;15.23;;;4.63;;
51654;SDS011;37732;53.106;7.030;2022-12-29T09:08:18;13.27;;;4.20;;
51654;SDS011;37732;53.106;7.030;2022-12-29T09:10:44;12.00;;;3.90;;
51654;SDS011;37732;53.106;7.030;2022-12-29T09:13:11;15.73;;;4.32;;
51654;SDS011;37732;53.106;7.030;2022-12-29T09:15:37;17.20;;;5.75;;
51654;SDS011;37732;53.106;7.030;2022-12-29T09:18:04;13.48;;;4.20;;
51654;SDS011;37732;53.106;7.030;2022-12-29T09:20:30;11.32;;;3.75;;
51654;SDS011;37732;53.106;7.030;2022-12-29T09:22:56;13.93;;;3.70;;
51654;SDS011;37732;53.106;7.030;2022-12-29T09:25:22;13.90;;;4.07;;
51654;SDS011;37732;53.106;7.030;2022-12-29T09:27:49;14.52;;;4.32;;
51654;SDS011;37732;53.106;7.030;2022-12-29T09:30:18;9.38;;;3.70;;
51654;SDS011;37732;53.106;7.030;2022-12-29T09:32:46;12.07;;;3.95;;
51654;SDS011;37732;53.106;7.030;2022-12-29T09:35:12;11.95;;;4.25;;
51654;SDS011;37732;53.106;7.030;2022-12-29T09:37:39;9.68;;;3.50;;
51654;SDS011;37732;53.106;7.030;2022-12-29T09:40:05;14.40;;;3.92;;
51654;SDS011;37732;53.106;7.030;2022-12-29T09:42:35;12.60;;;3.45;;
51654;SDS011;37732;53.106;7.030;2022-12-29T09:45:23;12.18;;;4.10;;
51654;SDS011;37732;53.106;7.030;2022-12-29T09:47:58;10.80;;;3.40;;
51654;SDS011;37732;53.106;7.030;2022-12-29T09:50:25;12.43;;;3.38;;
51654;SDS011;37732;53.106;7.030;2022-12-29T09:53:00;14.05;;;3.63;;
51654;SDS011;37732;53.106;7.030;2022-12-29T09:55:36;10.00;;;3.53;;
51654;SDS011;37732;53.106;7.030;2022-12-29T09:58:12;12.50;;;3.97;;
51654;SDS011;37732;53.106;7.030;2022-12-29T10:00:50;8.95;;;3.00;;
51654;SDS011;37732;53.106;7.030;2022-12-29T10:03:22;12.75;;;3.65;;
51654;SDS011;37732;53.106;7.030;2022-12-29T10:06:08;8.07;;;3.10;;
51654;SDS011;37732;53.106;7.030;2022-12-29T10:16:50;12.48;;;4.45;;
51654;SDS011;37732;53.106;7.030;2022-12-29T10:19:48;12.30;;;3.80;;
51654;SDS011;37732;53.106;7.030;2022-12-29T10:25:19;12.50;;;3.85;;
51654;SDS011;37732;53.106;7.030;2022-12-29T10:27:48;7.22;;;3.17;;
51654;SDS011;37732;53.106;7.030;2022-12-29T10:30:16;12.93;;;4.07;;
51654;SDS011;37732;53.106;7.030;2022-12-29T10:32:46;9.82;;;3.55;;
51654;SDS011;37732;53.106;7.030;2022-12-29T10:35:24;8.18;;;3.17;;
51654;SDS011;37732;53.106;7.030;2022-12-29T10:40:40;10.95;;;3.88;;
51654;SDS011;37732;53.106;7.030;2022-12-29T10:46:16;10.20;;;3.58;;
51654;SDS011;37732;53.106;7.030;2022-12-29T10:48:58;10.50;;;3.47;;
51654;SDS011;37732;53.106;7.030;2022-12-29T10:51:26;11.23;;;3.38;;
51654;SDS011;37732;53.106;7.030;2022-12-29T10:53:59;15.65;;;4.03;;
51654;SDS011;37732;53.106;7.030;2022-12-29T10:56:35;11.25;;;3.50;;
51654;SDS011;37732;53.106;7.030;2022-12-29T10:59:27;11.73;;;3.53;;
51654;SDS011;37732;53.106;7.030;2022-12-29T11:02:02;10.77;;;3.33;;
51654;SDS011;37732;53.106;7.030;2022-12-29T11:07:27;9.70;;;3.35;;
51654;SDS011;37732;53.106;7.030;2022-12-29T11:09:53;13.05;;;4.18;;
51654;SDS011;37732;53.106;7.030;2022-12-29T11:20:29;12.07;;;2.72;;
51654;SDS011;37732;53.106;7.030;2022-12-29T11:23:02;6.50;;;2.70;;
51654;SDS011;37732;53.106;7.030;2022-12-29T11:25:30;9.40;;;3.30;;
51654;SDS011;37732;53.106;7.030;2022-12-29T11:27:57;8.50;;;2.88;;
51654;SDS011;37732;53.106;7.030;2022-12-29T11:30:42;7.03;;;2.40;;
51654;SDS011;37732;53.106;7.030;2022-12-29T11:33:08;7.32;;;2.50;;
51654;SDS011;37732;53.106;7.030;2022-12-29T11:35:41;9.60;;;2.47;;
51654;SDS011;37732;53.106;7.030;2022-12-29T11:38:42;10.80;;;3.13;;
51654;SDS011;37732;53.106;7.030;2022-12-29T11:41:18;8.88;;;2.90;;
51654;SDS011;37732;53.106;7.030;2022-12-29T11:43:46;7.60;;;2.60;;
51654;SDS011;37732;53.106;7.030;2022-12-29T11:46:14;9.77;;;3.40;;
51654;SDS011;37732;53.106;7.030;2022-12-29T11:48:46;9.43;;;2.92;;
51654;SDS011;37732;53.106;7.030;2022-12-29T11:51:13;10.32;;;2.78;;
51654;SDS011;37732;53.106;7.030;2022-12-29T11:53:50;9.77;;;2.58;;
51654;SDS011;37732;53.106;7.030;2022-12-29T11:56:35;7.60;;;2.88;;
51654;SDS011;37732;53.106;7.030;2022-12-29T12:01:59;9.35;;;3.75;;
51654;SDS011;37732;53.106;7.030;2022-12-29T12:04:34;8.80;;;3.05;;
51654;SDS011;37732;53.106;7.030;2022-12-29T12:07:12;11.73;;;3.10;;
51654;SDS011;37732;53.106;7.030;2022-12-29T12:09:43;7.00;;;3.08;;
51654;SDS011;37732;53.106;7.030;2022-12-29T12:12:24;16.25;;;4.10;;
51654;SDS011;37732;53.106;7.030;2022-12-29T12:14:56;10.10;;;4.00;;
51654;SDS011;37732;53.106;7.030;2022-12-29T12:17:43;10.02;;;3.85;;
51654;SDS011;37732;53.106;7.030;2022-12-29T12:20:21;12.52;;;3.50;;
51654;SDS011;37732;53.106;7.030;2022-12-29T12:25:43;13.52;;;4.82;;
51654;SDS011;37732;53.106;7.030;2022-12-29T12:34:24;12.23;;;4.78;;
51654;SDS011;37732;53.106;7.030;2022-12-29T12:48:41;14.65;;;5.05;;
51654;SDS011;37732;53.106;7.030;2022-12-29T12:51:16;15.23;;;5.95;;
51654;SDS011;37732;53.106;7.030;2022-12-29T12:56:31;15.77;;;4.70;;
51654;SDS011;37732;53.106;7.030;2022-12-29T13:12:41;14.00;;;4.72;;
51654;SDS011;37732;53.106;7.030;2022-12-29T13:26:49;15.27;;;4.68;;
51654;SDS011;37732;53.106;7.030;2022-12-29T13:38:15;14.30;;;4.55;;
51654;SDS011;37732;53.106;7.030;2022-12-29T13:40:46;12.48;;;3.90;;
51654;SDS011;37732;53.106;7.030;2022-12-29T13:43:17;12.98;;;4.47;;
51654;SDS011;37732;53.106;7.030;2022-12-29T13:45:55;16.23;;;4.60;;
51654;SDS011;37732;53.106;7.030;2022-12-29T13:48:31;10.68;;;4.30;;
51654;SDS011;37732;53.106;7.030;2022-12-29T13:51:02;8.55;;;3.60;;
51654;SDS011;37732;53.106;7.030;2022-12-29T13:56:40;12.68;;;4.13;;
51654;SDS011;37732;53.106;7.030;2022-12-29T14:02:17;14.57;;;4.18;;
51654;SDS011;37732;53.106;7.030;2022-12-29T14:04:59;13.50;;;4.23;;
51654;SDS011;37732;53.106;7.030;2022-12-29T14:07:26;12.95;;;4.35;;
51654;SDS011;37732;53.106;7.030;2022-12-29T14:09:54;13.93;;;4.13;;
51654;SDS011;37732;53.106;7.030;2022-12-29T14:12:25;10.30;;;3.53;;
51654;SDS011;37732;53.106;7.030;2022-12-29T14:17:35;12.98;;;3.58;;
51654;SDS011;37732;53.106;7.030;2022-12-29T14:20:04;13.77;;;3.85;;
51654;SDS011;37732;53.106;7.030;2022-12-29T14:22:54;13.60;;;3.75;;
51654;SDS011;37732;53.106;7.030;2022-12-29T14:28:40;17.40;;;4.68;;
51654;SDS011;37732;53.106;7.030;2022-12-29T14:33:40;11.77;;;3.72;;
51654;SDS011;37732;53.106;7.030;2022-12-29T14:36:33;11.93;;;3.97;;
51654;SDS011;37732;53.106;7.030;2022-12-29T14:39:04;10.55;;;3.78;;
51654;SDS011;37732;53.106;7.030;2022-12-29T14:41:55;15.27;;;4.13;;
51654;SDS011;37732;53.106;7.030;2022-12-29T14:44:25;12.65;;;3.75;;
51654;SDS011;37732;53.106;7.030;2022-12-29T14:49:25;14.77;;;4.18;;
51654;SDS011;37732;53.106;7.030;2022-12-29T14:54:56;12.45;;;4.47;;
51654;SDS011;37732;53.106;7.030;2022-12-29T14:57:38;15.30;;;3.72;;
51654;SDS011;37732;53.106;7.030;2022-12-29T15:03:02;10.70;;;3.47;;
51654;SDS011;37732;53.106;7.030;2022-12-29T15:08:03;12.65;;;3.75;;
51654;SDS011;37732;53.106;7.030;2022-12-29T15:10:51;12.88;;;4.20;;
51654;SDS011;37732;53.106;7.030;2022-12-29T15:13:22;11.77;;;3.42;;
51654;SDS011;37732;53.106;7.030;2022-12-29T15:15:59;7.18;;;3.13;;
51654;SDS011;37732;53.106;7.030;2022-12-29T15:18:25;12.85;;;3.80;;
51654;SDS011;37732;53.106;7.030;2022-12-29T15:20:56;10.95;;;3.63;;
51654;SDS011;37732;53.106;7.030;2022-12-29T15:23:32;8.15;;;3.45;;
51654;SDS011;37732;53.106;7.030;2022-12-29T15:26:06;13.07;;;4.13;;
51654;SDS011;37732;53.106;7.030;2022-12-29T15:28:51;15.35;;;4.03;;
51654;SDS011;37732;53.106;7.030;2022-12-29T15:33:46;13.77;;;3.95;;
51654;SDS011;37732;53.106;7.030;2022-12-29T15:36:16;10.75;;;3.53;;
51654;SDS011;37732;53.106;7.030;2022-12-29T15:38:50;8.15;;;3.03;;
51654;SDS011;37732;53.106;7.030;2022-12-29T15:46:26;11.55;;;4.00;;
51654;SDS011;37732;53.106;7.030;2022-12-29T15:48:55;9.90;;;3.42;;
51654;SDS011;37732;53.106;7.030;2022-12-29T15:51:31;13.40;;;3.10;;
51654;SDS011;37732;53.106;7.030;2022-12-29T15:54:01;14.80;;;4.10;;
51654;SDS011;37732;53.106;7.030;2022-12-29T15:56:31;11.65;;;3.50;;
51654;SDS011;37732;53.106;7.030;2022-12-29T15:59:00;9.30;;;3.40;;
51654;SDS011;37732;53.106;7.030;2022-12-29T16:03:57;10.05;;;3.35;;
51654;SDS011;37732;53.106;7.030;2022-12-29T16:11:38;11.63;;;3.58;;
51654;SDS011;37732;53.106;7.030;2022-12-29T16:14:07;10.90;;;4.47;;
51654;SDS011;37732;53.106;7.030;2022-12-29T16:16:36;13.10;;;4.20;;
51654;SDS011;37732;53.106;7.030;2022-12-29T16:19:09;11.63;;;3.45;;
51654;SDS011;37732;53.106;7.030;2022-12-29T16:21:43;10.00;;;4.05;;
51654;SDS011;37732;53.106;7.030;2022-12-29T16:24:12;13.50;;;4.45;;
51654;SDS011;37732;53.106;7.030;2022-12-29T16:26:45;10.18;;;3.50;;
51654;SDS011;37732;53.106;7.030;2022-12-29T16:29:16;13.63;;;3.90;;
51654;SDS011;37732;53.106;7.030;2022-12-29T16:40:20;13.75;;;3.97;;
51654;SDS011;37732;53.106;7.030;2022-12-29T16:42:56;14.13;;;3.97;;
51654;SDS011;37732;53.106;7.030;2022-12-29T16:50:39;13.52;;;4.30;;
51654;SDS011;37732;53.106;7.030;2022-12-29T16:53:15;12.32;;;4.43;;
51654;SDS011;37732;53.106;7.030;2022-12-29T16:56:13;7.88;;;3.55;;
51654;SDS011;37732;53.106;7.030;2022-12-29T16:58:46;9.02;;;3.55;;
51654;SDS011;37732;53.106;7.030;2022-12-29T17:01:19;12.07;;;3.95;;
51654;SDS011;37732;53.106;7.030;2022-12-29T17:03:47;8.88;;;4.65;;
51654;SDS011;37732;53.106;7.030;2022-12-29T17:06:21;12.35;;;3.47;;
51654;SDS011;37732;53.106;7.030;2022-12-29T17:08:47;11.57;;;4.75;;
51654;SDS011;37732;53.106;7.030;2022-12-29T17:11:18;10.27;;;3.20;;
51654;SDS011;37732;53.106;7.030;2022-12-29T17:14:15;6.30;;;2.70;;
51654;SDS011;37732;53.106;7.030;2022-12-29T17:16:43;4.03;;;1.65;;
51654;SDS011;37732;53.106;7.030;2022-12-29T17:19:11;5.88;;;1.90;;
51654;SDS011;37732;53.106;7.030;2022-12-29T17:21:43;6.43;;;2.08;;
51654;SDS011;37732;53.106;7.030;2022-12-29T17:24:16;2.60;;;1.52;;
51654;SDS011;37732;53.106;7.030;2022-12-29T17:26:53;4.97;;;1.58;;
51654;SDS011;37732;53.106;7.030;2022-12-29T17:31:51;3.30;;;1.52;;
51654;SDS011;37732;53.106;7.030;2022-12-29T17:34:18;4.78;;;1.73;;
51654;SDS011;37732;53.106;7.030;2022-12-29T17:36:44;3.17;;;1.38;;
51654;SDS011;37732;53.106;7.030;2022-12-29T17:39:10;2.88;;;1.10;;
51654;SDS011;37732;53.106;7.030;2022-12-29T17:41:36;4.70;;;1.63;;
51654;SDS011;37732;53.106;7.030;2022-12-29T17:44:02;6.00;;;2.00;;
51654;SDS011;37732;53.106;7.030;2022-12-29T17:46:30;8.35;;;2.63;;
51654;SDS011;37732;53.106;7.030;2022-12-29T17:48:55;5.55;;;1.98;;
51654;SDS011;37732;53.106;7.030;2022-12-29T17:51:21;9.75;;;2.83;;
51654;SDS011;37732;53.106;7.030;2022-12-29T17:53:47;6.22;;;2.75;;
51654;SDS011;37732;53.106;7.030;2022-12-29T17:56:14;8.65;;;2.83;;
51654;SDS011;37732;53.106;7.030;2022-12-29T17:58:40;8.48;;;2.47;;
51654;SDS011;37732;53.106;7.030;2022-12-29T18:01:05;8.05;;;2.60;;
51654;SDS011;37732;53.106;7.030;2022-12-29T18:03:35;13.20;;;3.83;;